Data for 06/21/2008

Time Sea-Level Adjusted Pressure Absolute Pressure Temperature Relative Humidity Dew Point   
(mb) (inHg) (mb) (inHg) (C) (F) (%) (C) (F)
00:05 1024 30.24 854 25.22 16.4 61.5 40 2.9 37.3
00:10 1024 30.24 854 25.22 16.4 61.4 41 3.2 37.7
00:15 1024 30.24 854 25.22 16.1 60.9 43 3.5 38.3
00:20 1024 30.24 854 25.22 15.7 60.2 45 3.9 39
00:25 1024 30.24 854 25.22 15.4 59.7 44 3.3 38
00:30 1024 30.24 854 25.22 15.5 59.9 44 3.5 38.3
00:35 1024 30.24 854 25.22 15.4 59.8 44 3.4 38.1
00:40 1024 30.24 854 25.22 15.3 59.6 44 3.4 38.1
00:45 1024 30.24 854 25.22 15.2 59.4 45 3.3 38
00:50 1024 30.24 854 25.22 15.1 59.2 44 3 37.4
00:55 1024 30.24 854 25.22 15.1 59.1 45 3.3 38
01:00 1025 30.27 854 25.22 14.9 58.8 45 3.2 37.8
01:05 1025 30.27 854 25.22 14.7 58.5 46 3.3 37.9
01:10 1025 30.27 854 25.22 14.6 58.3 46 3.2 37.7
01:15 1025 30.27 854 25.22 14.5 58.1 46 3.2 37.7
01:20 1024 30.24 854 25.22 14.3 57.8 47 3.3 37.9
01:25 1024 30.24 854 25.22 14.2 57.5 48 3.4 38.1
01:30 1024 30.24 854 25.22 14.1 57.4 48 3.2 37.8
01:35 1024 30.24 854 25.22 14.3 57.7 47 3.1 37.6
01:40 1024 30.24 854 25.22 14.2 57.5 47 3.2 37.8
01:45 1024 30.24 854 25.22 14.2 57.5 47 3 37.5
01:50 1024 30.24 854 25.22 14.2 57.5 47 3.1 37.7
01:55 1024 30.24 854 25.22 14 57.1 47 2.9 37.3
02:00 1024 30.24 854 25.22 13.7 56.7 48 2.8 37.1
02:05 1024 30.24 854 25.22 13.7 56.7 47 2.7 36.8
02:10 1024 30.24 854 25.22 13.8 56.8 47 2.7 36.8
02:15 1024 30.24 854 25.22 14.1 57.3 45 2.3 36.2
02:20 1024 30.24 854 25.22 14.2 57.5 45 2.6 36.6
02:25 1024 30.24 854 25.22 14 57.2 46 2.6 36.8
02:30 1025 30.27 854 25.22 14 57.3 45 2.4 36.4
02:35 1025 30.27 854 25.22 14.2 57.5 44 2.3 36.1
02:40 1025 30.27 854 25.22 14.2 57.6 45 2.5 36.5
02:45 1025 30.27 854 25.22 14.1 57.4 45 2.5 36.6
02:50 1025 30.27 854 25.22 13.8 56.8 45 2 35.6
02:55 1025 30.27 854 25.22 14.3 57.8 41 1.5 34.7
03:00 1025 30.27 854 25.22 14.8 58.7 43 2.4 36.3
03:05 1025 30.27 854 25.22 14.4 57.9 43 2.1 35.8
03:10 1025 30.27 854 25.22 14.3 57.7 44 2.4 36.3
03:15 1025 30.27 854 25.22 14 57.1 45 2.2 35.9
03:20 1025 30.27 854 25.22 14.3 57.8 44 2.2 36
03:25 1025 30.27 854 25.22 14.4 57.9 44 2.2 36
03:30 1025 30.27 854 25.22 14.4 57.9 43 2.1 35.8
03:35 1025 30.27 854 25.22 14.4 57.9 44 2.3 36.2
03:40 1024 30.24 854 25.22 14.2 57.6 44 2.3 36.1
03:45 1024 30.24 854 25.22 14 57.2 45 2.4 36.3
03:50 1024 30.24 854 25.22 13.8 56.8 46 2.4 36.3
03:55 1024 30.24 854 25.22 13.6 56.5 45 2.1 35.8
04:00 1024 30.24 854 25.22 13.8 56.8 45 2.1 35.8
04:05 1024 30.24 854 25.22 14.1 57.4 44 2.2 35.9
04:10 1024 30.24 854 25.22 14.1 57.4 45 2.4 36.3
04:15 1024 30.24 854 25.22 14 57.2 45 2.4 36.2
04:20 1024 30.24 854 25.22 14.1 57.5 44 2.3 36.1
04:25 1024 30.24 854 25.22 14.3 57.7 43 2.1 35.8
04:30 1024 30.24 854 25.22 14.4 57.9 44 2.3 36.1
04:35 1024 30.24 854 25.22 14.3 57.7 44 2.3 36.1
04:40 1024 30.24 854 25.22 14.3 57.7 44 2.3 36.2
04:45 1024 30.24 854 25.22 14.1 57.4 45 2.5 36.5
04:50 1024 30.24 854 25.22 13.9 57.1 47 2.8 37
04:55 1024 30.24 854 25.22 13.8 56.8 46 2.4 36.2
05:00 1024 30.24 854 25.22 13.8 56.9 47 2.7 36.8
05:05 1025 30.27 854 25.22 13.8 56.8 45 2.1 35.7
05:10 1025 30.27 854 25.22 14.3 57.7 44 2.2 36
05:15 1024 30.24 854 25.22 14.3 57.7 43 1.9 35.5
05:20 1024 30.24 854 25.22 14.4 57.9 46 2.9 37.2
05:25 1025 30.27 854 25.22 14.3 57.8 43 1.9 35.5
05:30 1025 30.27 854 25.22 14.7 58.4 42 1.8 35.3
05:35 1025 30.27 854 25.22 14.6 58.3 42 1.9 35.4
05:40 1024 30.24 854 25.22 14.5 58.1 43 2.3 36.2
05:45 1025 30.27 854 25.22 14.1 57.4 44 2.2 35.9
05:50 1025 30.27 854 25.22 13.8 56.8 46 2.4 36.3
05:55 1025 30.27 854 25.22 13.6 56.6 47 2.5 36.5
06:00 1025 30.27 854 25.22 13.7 56.6 45 1.9 35.4
06:05 1025 30.27 854 25.22 13.9 57 45 2.2 35.9
06:10 1025 30.27 854 25.22 13.7 56.7 46 2.2 36
06:15 1025 30.27 854 25.22 13.4 56.2 48 2.8 37.1
06:20 1025 30.27 854 25.22 13.2 55.7 48 2.4 36.3
06:25 1025 30.27 854 25.22 13.1 55.6 48 2.5 36.5
06:30 1025 30.27 854 25.22 13 55.4 49 2.5 36.6
06:35 1025 30.27 854 25.22 12.8 55.1 49 2.6 36.6
06:40 1025 30.27 854 25.22 12.9 55.2 48 2.3 36.2
06:45 1025 30.27 854 25.22 13.1 55.6 48 2.3 36.1
06:50 1025 30.27 854 25.22 13.4 56.1 47 2.2 36
06:55 1025 30.27 854 25.22 13.9 57 45 2.1 35.8
07:00 1025 30.27 854 25.22 14 57.2 45 2.3 36.2
07:05 1025 30.27 854 25.22 14 57.2 46 2.6 36.6
07:10 1025 30.27 854 25.22 14 57.3 46 2.6 36.7
07:15 1025 30.27 854 25.22 14 57.3 46 2.6 36.7
07:20 1025 30.27 854 25.22 14.2 57.6 45 2.6 36.7
07:25 1025 30.27 854 25.22 14.6 58.3 45 2.8 37
07:30 1025 30.27 854 25.22 14.9 58.8 45 3.1 37.5
07:35 1025 30.27 854 25.22 15.4 59.8 43 2.9 37.3
07:40 1025 30.27 854 25.22 15.7 60.3 42 3.1 37.5
07:45 1025 30.27 854 25.22 16 60.8 43 3.4 38.2
07:50 1025 30.27 854 25.22 16.5 61.6 41 3.3 38
07:55 1025 30.27 854 25.22 16.8 62.3 42 4.1 39.4
08:00 1025 30.27 854 25.22 17.2 63 41 4.1 39.4
08:05 1025 30.27 854 25.22 17.4 63.2 41 4.2 39.6
08:10 1025 30.27 854 25.22 17.5 63.4 39 3.6 38.4
08:15 1025 30.27 854 25.22 17.6 63.7 40 4.1 39.4
08:20 1025 30.27 854 25.22 18.3 64.9 37 3.6 38.4
08:25 1025 30.27 854 25.22 18.2 64.8 38 4 39.1
08:30 1025 30.27 854 25.22 18.1 64.6 38 3.7 38.7
08:35 1025 30.27 854 25.22 18 64.4 38 3.7 38.6
08:40 1025 30.27 854 25.22 18.5 65.2 36 3.4 38.1
08:45 1025 30.27 854 25.22 18.7 65.6 36 3.6 38.5
08:50 1025 30.27 854 25.22 18.4 65.1 38 4 39.2
08:55 1025 30.27 854 25.22 18.3 64.9 37 3.4 38.1
09:00 1025 30.27 854 25.22 18.8 65.9 37 3.8 38.9
09:05 1025 30.27 854 25.22 18.6 65.5 37 3.6 38.4
09:10 1025 30.27 854 25.22 18.4 65.1 37 3.7 38.7
09:15 1025 30.27 854 25.22 18.7 65.6 37 3.7 38.7
09:20 1025 30.27 854 25.22 19.9 67.7 33 3.1 37.6
09:25 1025 30.27 854 25.22 20.6 69 33 3.8 38.8
09:30 1025 30.27 854 25.22 20.9 69.7 32 3.7 38.6
09:35 1025 30.27 854 25.22 21.6 70.9 31 3.9 39.1
09:40 1025 30.27 854 25.22 21.8 71.2 31 4.2 39.5
09:45 1025 30.27 854 25.22 21.4 70.5 33 4.4 40
09:50 1025 30.27 854 25.22 20.1 68.2 35 4.5 40
09:55 1025 30.27 854 25.22 20.3 68.6 33 3.7 38.6
10:00 1025 30.27 854 25.22 21.4 70.4 32 4.3 39.8
10:05 1025 30.27 854 25.22 21.1 70 33 4.5 40.1
10:10 1025 30.27 854 25.22 21.4 70.5 32 4.2 39.6
10:15 1025 30.27 854 25.22 22.2 71.9 32 4.7 40.4
10:20 1025 30.27 854 25.22 22.3 72.1 31 4.4 39.9
10:25 1025 30.27 854 25.22 22.9 73.1 30 4.7 40.5
10:30 1024 30.24 854 25.22 23.2 73.7 31 5.1 41.2
10:35 1024 30.24 854 25.22 23.1 73.7 32 5.6 42.2
10:40 1024 30.24 854 25.22 23.5 74.4 29 4.8 40.6
10:45 1024 30.24 854 25.22 24.2 75.6 29 5.4 41.8
10:50 1024 30.24 854 25.22 24.2 75.5 31 6.1 43
10:55 1024 30.24 854 25.22 24.4 75.9 30 6.1 43
11:00 1024 30.24 854 25.22 24.2 75.5 31 6.1 43
11:05 1024 30.24 854 25.22 24 75.1 32 6.4 43.5
11:10 1024 30.24 854 25.22 23.3 74 31 5.6 42.1
11:15 1024 30.24 854 25.22 24.7 76.4 31 6.4 43.6
11:20 1024 30.24 854 25.22 23.6 74.4 32 6.2 43.2
11:25 1024 30.24 854 25.22 23.4 74.1 33 6.2 43.2
11:30 1024 30.24 854 25.22 23.7 74.7 30 5.3 41.6
11:35 1024 30.24 853 25.19 24.3 75.7 31 6.4 43.4
11:40 1024 30.24 853 25.19 24 75.2 31 5.9 42.6
11:45 1024 30.24 853 25.19 25.3 77.5 30 6.6 43.9
11:50 1024 30.24 853 25.19 24.5 76 28 5.2 41.4
11:55 1024 30.24 853 25.19 25.5 77.9 28 5.9 42.5
12:00 1024 30.24 853 25.19 25.5 77.9 26 4.9 40.9
12:05 1024 30.24 853 25.19 25.9 78.6 26 5.2 41.4
12:10 1024 30.24 853 25.19 25.5 77.8 26 4.7 40.5
12:15 1024 30.24 853 25.19 25 76.9 28 5.6 42
12:20 1024 30.24 853 25.19 25.9 78.7 28 6.2 43.1
12:25 1024 30.24 853 25.19 25.4 77.7 29 6.6 43.8
12:30 1024 30.24 853 25.19 25.7 78.2 27 5.4 41.7
12:35 1024 30.24 853 25.19 25.8 78.5 27 5.5 41.8
12:40 1024 30.24 853 25.19 25.6 78 24 4 39.2
12:45 1024 30.24 853 25.19 26.1 79.1 24 4.1 39.3
12:50 1024 30.24 853 25.19 25.6 78.1 25 4.5 40.2
12:55 1024 30.24 853 25.19 26.4 79.6 25 5 41
13:00 1024 30.24 853 25.19 27.5 81.5 23 4.6 40.3
13:05 1024 30.24 853 25.19 27.9 82.2 20 3.4 38.1
13:10 1024 30.24 853 25.19 28.3 83 21 4.4 40
13:15 1024 30.24 853 25.19 27.8 82 19 2.3 36.1
13:20 1024 30.24 853 25.19 26.8 80.2 20 2.2 35.9
13:25 1024 30.24 853 25.19 27 80.5 21 2.8 37
13:30 1023 30.21 853 25.19 27.4 81.3 19 1.8 35.2
13:35 1023 30.21 853 25.19 28.6 83.5 16 1 33.8
13:40 1023 30.21 853 25.19 29.1 84.4 15 0.5 32.9
13:45 1023 30.21 853 25.19 28.7 83.7 16 0.4 32.7
13:50 1023 30.21 852 25.16 28.1 82.5 18 1.9 35.5
13:55 1023 30.21 852 25.16 28 82.3 19 2.6 36.7
14:00 1023 30.21 852 25.16 28.5 83.3 19 2.8 37
14:05 1023 30.21 852 25.16 29 84.2 16 1.2 34.2
14:10 1023 30.21 852 25.16 29.4 84.9 18 2.6 36.7
14:15 1023 30.21 852 25.16 29 84.1 17 1.7 35
14:20 1023 30.21 852 25.16 28.7 83.6 15 0.1 32.2
14:25 1023 30.21 852 25.16 29.5 85.1 15 0.6 33.1
14:30 1023 30.21 852 25.16 28.7 83.6 15 0.2 32.3
14:35 1023 30.21 852 25.16 28.4 83 18 2.4 36.3
14:40 1023 30.21 852 25.16 28.1 82.7 15 -0.7 30.7
14:45 1023 30.21 852 25.16 28.3 82.9 14 -1.1 30
14:50 1023 30.21 852 25.16 28.6 83.4 15 0 32
14:55 1023 30.21 852 25.16 29.1 84.3 14 -0.6 30.9
15:00 1023 30.21 852 25.16 29.1 84.3 15 -0.2 31.6
15:05 1022 30.18 852 25.16 29.4 84.9 15 0.2 32.3
15:10 1022 30.18 852 25.16 29.7 85.5 14 -0.7 30.8
15:15 1022 30.18 851 25.13 30 85.9 13 -0.8 30.6
15:20 1022 30.18 851 25.13 29.6 85.2 13 -1.3 29.6
15:25 1022 30.18 851 25.13 30.1 86.3 12 -2.1 28.1
15:30 1022 30.18 851 25.13 30.2 86.4 12 -1.6 29
15:35 1022 30.18 851 25.13 30.5 86.9 12 -1.7 28.9
15:40 1022 30.18 851 25.13 30.7 87.3 12 -2 28.3
15:45 1022 30.18 851 25.13 30.5 86.8 12 -1.6 29.2
15:50 1022 30.18 851 25.13 30.3 86.6 12 -1.4 29.4
15:55 1022 30.18 851 25.13 30.6 87.1 13 -1 30.2
16:00 1022 30.18 851 25.13 30.7 87.3 13 -1 30.3
16:05 1022 30.18 851 25.13 30.6 87 12 -1.4 29.4
16:10 1022 30.18 851 25.13 29.6 85.3 13 -1.8 28.7
16:15 1021 30.15 851 25.13 29.9 85.8 12 -2.1 28.3
16:20 1021 30.15 851 25.13 29.6 85.2 14 -0.9 30.4
16:25 1021 30.15 851 25.13 30.2 86.3 13 -0.9 30.4
16:30 1021 30.15 851 25.13 30.5 86.8 12 -1.3 29.6
16:35 1021 30.15 850 25.1 30.5 86.9 12 -1.5 29.3
16:40 1021 30.15 850 25.1 30.7 87.2 12 -1.8 28.7
16:45 1021 30.15 850 25.1 30.9 87.6 12 -1.3 29.6
16:50 1021 30.15 850 25.1 31 87.8 12 -1.1 30
16:55 1021 30.15 850 25.1 31 87.9 13 -0.5 31.1
17:00 1021 30.15 850 25.1 31.4 88.6 12 -1 30.2
17:05 1021 30.15 850 25.1 31.6 88.8 12 -0.5 31.1
17:10 1021 30.15 850 25.1 31.3 88.3 12 -0.6 30.9
17:15 1021 30.15 850 25.1 31.1 88 12 -1.1 30.1
17:20 1021 30.15 850 25.1 31.7 89 13 -0.2 31.6
17:25 1021 30.15 850 25.1 31.6 88.9 12 -0.8 30.5
17:30 1021 30.15 850 25.1 31.5 88.7 12 -0.4 31.2
17:35 1021 30.15 850 25.1 31.1 87.9 13 -0.5 31.1
17:40 1021 30.15 850 25.1 30.7 87.2 13 -0.4 31.3
17:45 1021 30.15 850 25.1 30.5 86.8 13 -0.4 31.3
17:50 1021 30.15 850 25.1 30.2 86.4 14 -0.3 31.5
17:55 1021 30.15 850 25.1 29.9 85.8 14 -0.4 31.3
18:00 1021 30.15 850 25.1 29.7 85.5 14 0.2 32.3
18:05 1021 30.15 850 25.1 30.4 86.8 13 -0.3 31.5
18:10 1021 30.15 850 25.1 30.8 87.5 14 0.2 32.4
18:15 1021 30.15 850 25.1 30.8 87.4 13 -0.5 31.1
18:20 1021 30.15 850 25.1 30.7 87.2 13 -0.7 30.7
18:25 1021 30.15 850 25.1 30.7 87.3 13 -0.7 30.7
18:30 1020 30.12 850 25.1 31 87.7 13 0 32
18:35 1020 30.12 850 25.1 31.1 88 13 -0.4 31.3
18:40 1020 30.12 849 25.07 30.9 87.6 13 -0.4 31.3
18:45 1020 30.12 849 25.07 30.7 87.3 13 -0.1 31.9
18:50 1020 30.12 849 25.07 30.1 86.2 13 -0.6 30.9
18:55 1020 30.12 849 25.07 29.6 85.2 14 -0.3 31.5
19:00 1020 30.12 849 25.07 28.9 84 15 -0.2 31.6
19:05 1020 30.12 849 25.07 29 84.2 14 -1 30.1
19:10 1020 30.12 849 25.07 29.2 84.6 14 -0.7 30.8
19:15 1020 30.12 849 25.07 29.5 85 15 0.3 32.6
19:20 1020 30.12 849 25.07 29 84.2 15 0.5 32.9
19:25 1020 30.12 849 25.07 29 84.1 15 0.3 32.5
19:30 1020 30.12 849 25.07 28.7 83.6 18 1.9 35.5
19:35 1020 30.12 849 25.07 28.2 82.8 19 2.6 36.8
19:40 1020 30.12 849 25.07 28 82.3 20 3.2 37.8
19:45 1020 30.12 849 25.07 27.5 81.5 21 3.5 38.2
19:50 1020 30.12 849 25.07 27 80.6 22 3.5 38.4
19:55 1020 30.12 849 25.07 26.7 80 23 4.2 39.5
20:00 1020 30.12 849 25.07 26.1 79 25 4.8 40.6
20:05 1020 30.12 849 25.07 25.7 78.3 26 4.9 40.8
20:10 1020 30.12 849 25.07 25.4 77.7 29 6.2 43.1
20:15 1020 30.12 849 25.07 25.2 77.3 27 5 41.1
20:20 1020 30.12 849 25.07 24.9 76.8 26 4.1 39.4
20:25 1020 30.12 849 25.07 24.7 76.4 26 4 39.2
20:30 1020 30.12 849 25.07 24.4 76 25 3.3 38
20:35 1020 30.12 849 25.07 24.3 75.8 25 3.4 38.2
20:40 1020 30.12 849 25.07 24.3 75.7 25 3.2 37.7
20:45 1020 30.12 849 25.07 24.4 76 25 3.3 37.9
20:50 1019 30.09 849 25.07 24.4 76 26 3.8 38.8
20:55 1019 30.09 849 25.07 24.2 75.6 26 3.5 38.4
21:00 1019 30.09 849 25.07 24.2 75.5 26 3.8 38.8
21:05 1019 30.09 849 25.07 24.1 75.3 26 3.7 38.6
21:10 1019 30.09 849 25.07 23.8 74.9 26 3.5 38.3
21:15 1019 30.09 849 25.07 23.7 74.7 25 2.9 37.2
21:20 1019 30.09 849 25.07 23.7 74.6 25 2.6 36.8
21:25 1019 30.09 849 25.07 23.6 74.5 26 2.9 37.3
21:30 1019 30.09 849 25.07 23.4 74 26 3 37.5
21:35 1019 30.09 849 25.07 23.3 73.9 25 2.6 36.7
21:40 1019 30.09 849 25.07 23.3 74 25 2.2 36
21:45 1019 30.09 849 25.07 23.2 73.7 26 3.1 37.5
21:50 1019 30.09 849 25.07 22.7 72.9 27 2.9 37.2
21:55 1019 30.09 849 25.07 22.4 72.4 28 3.3 38
22:00 1019 30.09 849 25.07 22.1 71.7 29 3.3 38
22:05 1019 30.09 849 25.07 21.9 71.4 29 3.2 37.7
22:10 1019 30.09 849 25.07 21.9 71.5 28 2.7 36.9
22:15 1020 30.12 849 25.07 22.5 72.5 27 2.6 36.7
22:20 1019 30.09 849 25.07 22.4 72.3 27 2.6 36.7
22:25 1019 30.09 849 25.07 22.4 72.4 27 2.6 36.7
22:30 1019 30.09 849 25.07 22.5 72.4 26 2.5 36.5
22:35 1019 30.09 849 25.07 22.5 72.6 26 2.2 36
22:40 1019 30.09 849 25.07 22.5 72.5 27 2.6 36.6
22:45 1019 30.09 849 25.07 22.3 72.1 27 2.8 37
22:50 1019 30.09 849 25.07 22 71.7 27 2.5 36.5
22:55 1019 30.09 849 25.07 22.1 71.8 27 2.6 36.6
23:00 1019 30.09 849 25.07 22.2 71.9 27 2.3 36.2
23:05 1019 30.09 849 25.07 22.4 72.3 27 2.7 36.9
23:10 1019 30.09 849 25.07 22.4 72.2 27 2.9 37.2
23:15 1019 30.09 848 25.04 22.3 72.1 29 3.6 38.5
23:20 1019 30.09 848 25.04 21.9 71.4 30 3.7 38.7
23:25 1019 30.09 848 25.04 21.6 70.9 31 3.8 38.9
23:30 1019 30.09 848 25.04 21.4 70.6 32 4.1 39.3
23:35 1019 30.09 848 25.04 21.3 70.3 33 4.5 40
23:40 1019 30.09 848 25.04 21.1 70.1 34 4.7 40.5
23:45 1019 30.09 848 25.04 21 69.8 35 5.2 41.4
23:50 1019 30.09 848 25.04 20.9 69.6 36 5.6 42
23:55 1019 30.09 848 25.04 20.9 69.7 37 5.7 42.2
24:00 1019 30.09 848 25.04 21 69.8 37 6.1 42.9